sensor_id;sensor_type;location;lat;lon;timestamp;P1;durP1;ratioP1;P2;durP2;ratioP2
46767;SDS011;69007;48.978;18.066;2023-05-21T00:00:47;14.90;;;9.68;;
46767;SDS011;69007;48.978;18.066;2023-05-21T00:03:12;16.02;;;10.85;;
46767;SDS011;69007;48.978;18.066;2023-05-21T00:05:42;16.13;;;11.13;;
46767;SDS011;69007;48.978;18.066;2023-05-21T00:08:09;20.27;;;11.63;;
46767;SDS011;69007;48.978;18.066;2023-05-21T00:10:34;13.50;;;11.68;;
46767;SDS011;69007;48.978;18.066;2023-05-21T00:13:00;19.38;;;12.07;;
46767;SDS011;69007;48.978;18.066;2023-05-21T00:15:25;17.50;;;11.55;;
46767;SDS011;69007;48.978;18.066;2023-05-21T00:17:50;20.15;;;11.48;;
46767;SDS011;69007;48.978;18.066;2023-05-21T00:20:16;17.58;;;11.70;;
46767;SDS011;69007;48.978;18.066;2023-05-21T00:22:42;13.70;;;11.52;;
46767;SDS011;69007;48.978;18.066;2023-05-21T00:25:08;14.93;;;11.57;;
46767;SDS011;69007;48.978;18.066;2023-05-21T00:27:34;20.35;;;12.20;;
46767;SDS011;69007;48.978;18.066;2023-05-21T00:30:00;15.27;;;11.82;;
46767;SDS011;69007;48.978;18.066;2023-05-21T00:32:25;19.50;;;12.32;;
46767;SDS011;69007;48.978;18.066;2023-05-21T00:34:51;15.95;;;11.95;;
46767;SDS011;69007;48.978;18.066;2023-05-21T00:37:16;17.15;;;11.77;;
46767;SDS011;69007;48.978;18.066;2023-05-21T00:39:41;16.45;;;12.57;;
46767;SDS011;69007;48.978;18.066;2023-05-21T00:42:07;15.52;;;12.07;;
46767;SDS011;69007;48.978;18.066;2023-05-21T00:44:32;17.23;;;12.73;;
46767;SDS011;69007;48.978;18.066;2023-05-21T00:47:01;14.77;;;12.05;;
46767;SDS011;69007;48.978;18.066;2023-05-21T00:49:27;18.90;;;11.85;;
46767;SDS011;69007;48.978;18.066;2023-05-21T00:51:53;15.68;;;11.95;;
46767;SDS011;69007;48.978;18.066;2023-05-21T00:54:19;15.55;;;11.68;;
46767;SDS011;69007;48.978;18.066;2023-05-21T00:56:46;18.77;;;11.65;;
46767;SDS011;69007;48.978;18.066;2023-05-21T00:59:12;14.52;;;11.60;;
46767;SDS011;69007;48.978;18.066;2023-05-21T01:01:40;16.98;;;12.57;;
46767;SDS011;69007;48.978;18.066;2023-05-21T01:04:07;14.20;;;11.77;;
46767;SDS011;69007;48.978;18.066;2023-05-21T01:06:32;13.13;;;11.60;;
46767;SDS011;69007;48.978;18.066;2023-05-21T01:08:58;14.43;;;11.60;;
46767;SDS011;69007;48.978;18.066;2023-05-21T01:11:31;14.27;;;11.85;;
46767;SDS011;69007;48.978;18.066;2023-05-21T01:14:04;15.45;;;12.23;;
46767;SDS011;69007;48.978;18.066;2023-05-21T01:16:33;16.73;;;12.40;;
46767;SDS011;69007;48.978;18.066;2023-05-21T01:19:01;21.15;;;14.70;;
46767;SDS011;69007;48.978;18.066;2023-05-21T01:21:27;15.63;;;13.10;;
46767;SDS011;69007;48.978;18.066;2023-05-21T01:23:54;17.95;;;13.32;;
46767;SDS011;69007;48.978;18.066;2023-05-21T01:26:20;19.48;;;13.75;;
46767;SDS011;69007;48.978;18.066;2023-05-21T01:28:45;17.23;;;12.50;;
46767;SDS011;69007;48.978;18.066;2023-05-21T01:31:15;16.20;;;12.63;;
46767;SDS011;69007;48.978;18.066;2023-05-21T01:33:55;14.68;;;12.55;;
46767;SDS011;69007;48.978;18.066;2023-05-21T01:36:28;18.08;;;12.93;;
46767;SDS011;69007;48.978;18.066;2023-05-21T01:41:53;16.80;;;12.77;;
46767;SDS011;69007;48.978;18.066;2023-05-21T01:44:20;19.65;;;14.02;;
46767;SDS011;69007;48.978;18.066;2023-05-21T01:46:49;21.83;;;14.00;;
46767;SDS011;69007;48.978;18.066;2023-05-21T01:49:15;18.38;;;12.43;;
46767;SDS011;69007;48.978;18.066;2023-05-21T01:51:41;20.67;;;13.35;;
46767;SDS011;69007;48.978;18.066;2023-05-21T01:54:07;19.80;;;12.50;;
46767;SDS011;69007;48.978;18.066;2023-05-21T01:56:33;15.70;;;12.73;;
46767;SDS011;69007;48.978;18.066;2023-05-21T01:59:00;17.60;;;12.23;;
46767;SDS011;69007;48.978;18.066;2023-05-21T02:01:26;19.45;;;13.48;;
46767;SDS011;69007;48.978;18.066;2023-05-21T02:03:54;16.77;;;14.05;;
46767;SDS011;69007;48.978;18.066;2023-05-21T02:06:19;22.23;;;14.23;;
46767;SDS011;69007;48.978;18.066;2023-05-21T02:08:45;19.27;;;13.88;;
46767;SDS011;69007;48.978;18.066;2023-05-21T02:11:12;23.33;;;13.73;;
46767;SDS011;69007;48.978;18.066;2023-05-21T02:13:37;28.20;;;13.93;;
46767;SDS011;69007;48.978;18.066;2023-05-21T02:16:10;18.67;;;12.93;;
46767;SDS011;69007;48.978;18.066;2023-05-21T02:18:38;18.15;;;12.00;;
46767;SDS011;69007;48.978;18.066;2023-05-21T02:21:06;18.65;;;12.20;;
46767;SDS011;69007;48.978;18.066;2023-05-21T02:23:31;21.23;;;13.13;;
46767;SDS011;69007;48.978;18.066;2023-05-21T02:25:56;17.75;;;13.35;;
46767;SDS011;69007;48.978;18.066;2023-05-21T02:28:22;21.65;;;13.38;;
46767;SDS011;69007;48.978;18.066;2023-05-21T02:30:47;25.85;;;12.57;;
46767;SDS011;69007;48.978;18.066;2023-05-21T02:33:14;22.83;;;13.13;;
46767;SDS011;69007;48.978;18.066;2023-05-21T02:35:40;16.90;;;12.10;;
46767;SDS011;69007;48.978;18.066;2023-05-21T02:38:06;16.38;;;12.75;;
46767;SDS011;69007;48.978;18.066;2023-05-21T02:40:33;15.35;;;12.00;;
46767;SDS011;69007;48.978;18.066;2023-05-21T02:42:58;13.80;;;11.75;;
46767;SDS011;69007;48.978;18.066;2023-05-21T02:45:24;15.70;;;12.13;;
46767;SDS011;69007;48.978;18.066;2023-05-21T02:47:49;18.42;;;12.00;;
46767;SDS011;69007;48.978;18.066;2023-05-21T02:50:15;16.55;;;11.93;;
46767;SDS011;69007;48.978;18.066;2023-05-21T02:52:40;16.90;;;11.52;;
46767;SDS011;69007;48.978;18.066;2023-05-21T02:55:06;14.32;;;12.00;;
46767;SDS011;69007;48.978;18.066;2023-05-21T02:57:31;16.23;;;12.55;;
46767;SDS011;69007;48.978;18.066;2023-05-21T02:59:57;15.38;;;12.55;;
46767;SDS011;69007;48.978;18.066;2023-05-21T03:02:22;18.02;;;12.13;;
46767;SDS011;69007;48.978;18.066;2023-05-21T03:04:47;17.65;;;12.52;;
46767;SDS011;69007;48.978;18.066;2023-05-21T03:07:15;15.35;;;13.05;;
46767;SDS011;69007;48.978;18.066;2023-05-21T03:09:42;21.20;;;13.00;;
46767;SDS011;69007;48.978;18.066;2023-05-21T03:12:08;15.30;;;12.10;;
46767;SDS011;69007;48.978;18.066;2023-05-21T03:14:34;15.40;;;11.43;;
46767;SDS011;69007;48.978;18.066;2023-05-21T03:17:00;14.88;;;12.35;;
46767;SDS011;69007;48.978;18.066;2023-05-21T03:19:29;24.25;;;12.50;;
46767;SDS011;69007;48.978;18.066;2023-05-21T03:22:03;18.15;;;11.45;;
46767;SDS011;69007;48.978;18.066;2023-05-21T03:24:29;15.13;;;10.70;;
46767;SDS011;69007;48.978;18.066;2023-05-21T03:26:54;15.32;;;11.70;;
46767;SDS011;69007;48.978;18.066;2023-05-21T03:29:21;14.45;;;11.60;;
46767;SDS011;69007;48.978;18.066;2023-05-21T03:31:46;20.75;;;10.93;;
46767;SDS011;69007;48.978;18.066;2023-05-21T03:34:11;13.38;;;10.38;;
46767;SDS011;69007;48.978;18.066;2023-05-21T03:36:37;12.90;;;11.07;;
46767;SDS011;69007;48.978;18.066;2023-05-21T03:39:02;14.43;;;10.82;;
46767;SDS011;69007;48.978;18.066;2023-05-21T03:41:28;17.05;;;11.23;;
46767;SDS011;69007;48.978;18.066;2023-05-21T03:43:53;22.15;;;12.27;;
46767;SDS011;69007;48.978;18.066;2023-05-21T03:46:19;17.33;;;11.80;;
46767;SDS011;69007;48.978;18.066;2023-05-21T03:48:44;14.77;;;11.15;;
46767;SDS011;69007;48.978;18.066;2023-05-21T03:51:09;15.77;;;11.07;;
46767;SDS011;69007;48.978;18.066;2023-05-21T03:53:35;19.25;;;11.95;;
46767;SDS011;69007;48.978;18.066;2023-05-21T03:56:00;19.60;;;12.02;;
46767;SDS011;69007;48.978;18.066;2023-05-21T03:58:26;18.08;;;11.27;;
46767;SDS011;69007;48.978;18.066;2023-05-21T04:00:52;14.15;;;11.18;;
46767;SDS011;69007;48.978;18.066;2023-05-21T04:03:17;16.33;;;13.00;;
46767;SDS011;69007;48.978;18.066;2023-05-21T04:05:42;19.70;;;12.35;;
46767;SDS011;69007;48.978;18.066;2023-05-21T04:08:08;14.45;;;10.65;;
46767;SDS011;69007;48.978;18.066;2023-05-21T04:10:34;19.80;;;10.57;;
46767;SDS011;69007;48.978;18.066;2023-05-21T04:12:59;16.08;;;11.80;;
46767;SDS011;69007;48.978;18.066;2023-05-21T04:15:25;11.77;;;10.10;;
46767;SDS011;69007;48.978;18.066;2023-05-21T04:17:51;15.50;;;11.00;;
46767;SDS011;69007;48.978;18.066;2023-05-21T04:20:17;15.15;;;11.40;;
46767;SDS011;69007;48.978;18.066;2023-05-21T04:22:42;15.13;;;10.80;;
46767;SDS011;69007;48.978;18.066;2023-05-21T04:25:08;18.00;;;11.60;;
46767;SDS011;69007;48.978;18.066;2023-05-21T04:27:34;14.27;;;10.10;;
46767;SDS011;69007;48.978;18.066;2023-05-21T04:29:59;15.57;;;10.75;;
46767;SDS011;69007;48.978;18.066;2023-05-21T04:32:24;16.25;;;10.70;;
46767;SDS011;69007;48.978;18.066;2023-05-21T04:34:50;14.82;;;12.23;;
46767;SDS011;69007;48.978;18.066;2023-05-21T04:37:15;15.27;;;12.05;;
46767;SDS011;69007;48.978;18.066;2023-05-21T04:39:44;15.93;;;11.68;;
46767;SDS011;69007;48.978;18.066;2023-05-21T04:42:10;15.98;;;11.65;;
46767;SDS011;69007;48.978;18.066;2023-05-21T04:44:36;15.38;;;11.45;;
46767;SDS011;69007;48.978;18.066;2023-05-21T04:47:04;13.68;;;11.15;;
46767;SDS011;69007;48.978;18.066;2023-05-21T04:49:29;15.07;;;12.00;;
46767;SDS011;69007;48.978;18.066;2023-05-21T04:51:55;18.90;;;10.90;;
46767;SDS011;69007;48.978;18.066;2023-05-21T04:54:20;15.98;;;11.98;;
46767;SDS011;69007;48.978;18.066;2023-05-21T04:56:46;14.70;;;12.93;;
46767;SDS011;69007;48.978;18.066;2023-05-21T04:59:12;14.55;;;11.10;;
46767;SDS011;69007;48.978;18.066;2023-05-21T05:01:38;19.08;;;9.60;;
46767;SDS011;69007;48.978;18.066;2023-05-21T05:04:03;10.80;;;8.85;;
46767;SDS011;69007;48.978;18.066;2023-05-21T05:06:29;9.23;;;8.27;;
46767;SDS011;69007;48.978;18.066;2023-05-21T05:08:55;12.15;;;8.00;;
46767;SDS011;69007;48.978;18.066;2023-05-21T05:11:20;10.73;;;8.20;;
46767;SDS011;69007;48.978;18.066;2023-05-21T05:13:46;9.55;;;7.63;;
46767;SDS011;69007;48.978;18.066;2023-05-21T05:16:11;14.65;;;7.78;;
46767;SDS011;69007;48.978;18.066;2023-05-21T05:18:38;12.00;;;7.53;;
46767;SDS011;69007;48.978;18.066;2023-05-21T05:21:03;8.27;;;7.45;;
46767;SDS011;69007;48.978;18.066;2023-05-21T05:23:29;10.45;;;7.47;;
46767;SDS011;69007;48.978;18.066;2023-05-21T05:25:54;8.43;;;6.72;;
46767;SDS011;69007;48.978;18.066;2023-05-21T05:28:19;13.38;;;7.40;;
46767;SDS011;69007;48.978;18.066;2023-05-21T05:30:45;8.05;;;6.90;;
46767;SDS011;69007;48.978;18.066;2023-05-21T05:33:10;11.50;;;6.40;;
46767;SDS011;69007;48.978;18.066;2023-05-21T05:35:36;9.88;;;6.97;;
46767;SDS011;69007;48.978;18.066;2023-05-21T05:38:01;11.73;;;7.22;;
46767;SDS011;69007;48.978;18.066;2023-05-21T05:40:27;12.98;;;7.55;;
46767;SDS011;69007;48.978;18.066;2023-05-21T05:42:52;12.18;;;7.40;;
46767;SDS011;69007;48.978;18.066;2023-05-21T05:45:18;12.13;;;6.50;;
46767;SDS011;69007;48.978;18.066;2023-05-21T05:47:44;11.93;;;6.45;;
46767;SDS011;69007;48.978;18.066;2023-05-21T05:50:09;11.40;;;6.70;;
46767;SDS011;69007;48.978;18.066;2023-05-21T05:52:35;16.13;;;6.97;;
46767;SDS011;69007;48.978;18.066;2023-05-21T05:55:00;10.25;;;7.25;;
46767;SDS011;69007;48.978;18.066;2023-05-21T05:57:26;12.15;;;7.10;;
46767;SDS011;69007;48.978;18.066;2023-05-21T05:59:51;9.90;;;7.30;;
46767;SDS011;69007;48.978;18.066;2023-05-21T06:02:16;7.28;;;6.13;;
46767;SDS011;69007;48.978;18.066;2023-05-21T06:04:42;10.15;;;6.70;;
46767;SDS011;69007;48.978;18.066;2023-05-21T06:07:07;20.70;;;7.20;;
46767;SDS011;69007;48.978;18.066;2023-05-21T06:09:33;13.70;;;6.20;;
46767;SDS011;69007;48.978;18.066;2023-05-21T06:11:58;10.85;;;7.00;;
46767;SDS011;69007;48.978;18.066;2023-05-21T06:14:23;8.43;;;6.00;;
46767;SDS011;69007;48.978;18.066;2023-05-21T06:16:49;13.32;;;6.80;;
46767;SDS011;69007;48.978;18.066;2023-05-21T06:19:14;7.10;;;6.30;;
46767;SDS011;69007;48.978;18.066;2023-05-21T06:21:39;6.93;;;6.10;;
46767;SDS011;69007;48.978;18.066;2023-05-21T06:24:05;11.70;;;6.40;;
46767;SDS011;69007;48.978;18.066;2023-05-21T06:26:31;8.68;;;6.25;;
46767;SDS011;69007;48.978;18.066;2023-05-21T06:28:56;9.02;;;6.78;;
46767;SDS011;69007;48.978;18.066;2023-05-21T06:31:21;9.13;;;6.80;;
46767;SDS011;69007;48.978;18.066;2023-05-21T06:33:47;7.95;;;6.65;;
46767;SDS011;69007;48.978;18.066;2023-05-21T06:36:13;8.38;;;6.93;;
46767;SDS011;69007;48.978;18.066;2023-05-21T06:38:39;11.45;;;6.80;;
46767;SDS011;69007;48.978;18.066;2023-05-21T06:41:05;11.98;;;8.00;;
46767;SDS011;69007;48.978;18.066;2023-05-21T06:43:30;11.73;;;8.00;;
46767;SDS011;69007;48.978;18.066;2023-05-21T06:45:56;7.15;;;6.40;;
46767;SDS011;69007;48.978;18.066;2023-05-21T06:48:21;10.95;;;7.82;;
46767;SDS011;69007;48.978;18.066;2023-05-21T06:50:46;11.75;;;7.60;;
46767;SDS011;69007;48.978;18.066;2023-05-21T06:53:12;9.52;;;7.40;;
46767;SDS011;69007;48.978;18.066;2023-05-21T06:55:40;8.15;;;7.35;;
46767;SDS011;69007;48.978;18.066;2023-05-21T06:58:08;11.40;;;7.80;;
46767;SDS011;69007;48.978;18.066;2023-05-21T07:00:34;10.13;;;7.35;;
46767;SDS011;69007;48.978;18.066;2023-05-21T07:02:59;9.15;;;7.43;;
46767;SDS011;69007;48.978;18.066;2023-05-21T07:05:25;11.77;;;10.02;;
46767;SDS011;69007;48.978;18.066;2023-05-21T07:07:50;12.75;;;7.80;;
46767;SDS011;69007;48.978;18.066;2023-05-21T07:10:15;11.65;;;7.97;;
46767;SDS011;69007;48.978;18.066;2023-05-21T07:12:41;10.25;;;7.78;;
46767;SDS011;69007;48.978;18.066;2023-05-21T07:15:06;10.13;;;7.47;;
46767;SDS011;69007;48.978;18.066;2023-05-21T07:17:33;12.52;;;7.22;;
46767;SDS011;69007;48.978;18.066;2023-05-21T07:19:58;11.13;;;7.15;;
46767;SDS011;69007;48.978;18.066;2023-05-21T07:22:23;8.25;;;7.35;;
46767;SDS011;69007;48.978;18.066;2023-05-21T07:24:49;8.88;;;7.53;;
46767;SDS011;69007;48.978;18.066;2023-05-21T07:27:14;8.60;;;7.65;;
46767;SDS011;69007;48.978;18.066;2023-05-21T07:29:39;10.85;;;7.65;;
46767;SDS011;69007;48.978;18.066;2023-05-21T07:32:05;11.98;;;7.57;;
46767;SDS011;69007;48.978;18.066;2023-05-21T07:34:30;14.25;;;7.55;;
46767;SDS011;69007;48.978;18.066;2023-05-21T07:36:56;8.63;;;7.43;;
46767;SDS011;69007;48.978;18.066;2023-05-21T07:39:22;8.50;;;7.28;;
46767;SDS011;69007;48.978;18.066;2023-05-21T07:41:47;11.57;;;7.57;;
46767;SDS011;69007;48.978;18.066;2023-05-21T07:44:13;10.05;;;7.50;;
46767;SDS011;69007;48.978;18.066;2023-05-21T07:46:38;8.93;;;7.32;;
46767;SDS011;69007;48.978;18.066;2023-05-21T07:49:03;7.57;;;6.78;;
46767;SDS011;69007;48.978;18.066;2023-05-21T07:51:29;7.15;;;6.50;;
46767;SDS011;69007;48.978;18.066;2023-05-21T07:53:55;11.82;;;7.20;;
46767;SDS011;69007;48.978;18.066;2023-05-21T07:56:20;8.43;;;6.65;;
46767;SDS011;69007;48.978;18.066;2023-05-21T07:58:46;10.15;;;6.93;;
46767;SDS011;69007;48.978;18.066;2023-05-21T08:01:12;9.32;;;7.20;;
46767;SDS011;69007;48.978;18.066;2023-05-21T08:03:37;7.72;;;6.97;;
46767;SDS011;69007;48.978;18.066;2023-05-21T08:06:03;7.95;;;7.15;;
46767;SDS011;69007;48.978;18.066;2023-05-21T08:08:28;9.43;;;6.65;;
46767;SDS011;69007;48.978;18.066;2023-05-21T08:10:54;13.32;;;7.93;;
46767;SDS011;69007;48.978;18.066;2023-05-21T08:13:20;7.78;;;7.07;;
46767;SDS011;69007;48.978;18.066;2023-05-21T08:15:45;10.10;;;6.97;;
46767;SDS011;69007;48.978;18.066;2023-05-21T08:18:11;10.43;;;7.13;;
46767;SDS011;69007;48.978;18.066;2023-05-21T08:20:37;8.13;;;6.97;;
46767;SDS011;69007;48.978;18.066;2023-05-21T08:23:02;11.57;;;5.95;;
46767;SDS011;69007;48.978;18.066;2023-05-21T08:25:28;9.60;;;6.22;;
46767;SDS011;69007;48.978;18.066;2023-05-21T08:27:53;14.55;;;6.18;;
46767;SDS011;69007;48.978;18.066;2023-05-21T08:30:19;7.30;;;6.28;;
46767;SDS011;69007;48.978;18.066;2023-05-21T08:32:45;7.35;;;6.65;;
46767;SDS011;69007;48.978;18.066;2023-05-21T08:35:11;11.35;;;6.57;;
46767;SDS011;69007;48.978;18.066;2023-05-21T08:37:36;13.68;;;6.70;;
46767;SDS011;69007;48.978;18.066;2023-05-21T08:40:02;9.77;;;7.10;;
46767;SDS011;69007;48.978;18.066;2023-05-21T08:44:57;9.50;;;6.50;;
46767;SDS011;69007;48.978;18.066;2023-05-21T08:47:25;8.88;;;5.72;;
46767;SDS011;69007;48.978;18.066;2023-05-21T08:49:54;16.80;;;6.50;;
46767;SDS011;69007;48.978;18.066;2023-05-21T08:52:20;8.80;;;6.43;;
46767;SDS011;69007;48.978;18.066;2023-05-21T08:54:45;8.77;;;5.70;;
46767;SDS011;69007;48.978;18.066;2023-05-21T08:57:14;7.97;;;6.25;;
46767;SDS011;69007;48.978;18.066;2023-05-21T08:59:42;5.93;;;5.32;;
46767;SDS011;69007;48.978;18.066;2023-05-21T09:02:12;5.93;;;5.05;;
46767;SDS011;69007;48.978;18.066;2023-05-21T09:04:38;12.10;;;5.57;;
46767;SDS011;69007;48.978;18.066;2023-05-21T09:07:08;9.75;;;5.72;;
46767;SDS011;69007;48.978;18.066;2023-05-21T09:09:38;8.88;;;5.75;;
46767;SDS011;69007;48.978;18.066;2023-05-21T09:12:32;13.25;;;5.75;;
46767;SDS011;69007;48.978;18.066;2023-05-21T09:14:59;11.90;;;6.10;;
46767;SDS011;69007;48.978;18.066;2023-05-21T09:17:25;10.85;;;5.57;;
46767;SDS011;69007;48.978;18.066;2023-05-21T09:22:31;13.35;;;7.18;;
46767;SDS011;69007;48.978;18.066;2023-05-21T09:24:57;8.90;;;6.18;;
46767;SDS011;69007;48.978;18.066;2023-05-21T09:27:23;6.28;;;5.68;;
46767;SDS011;69007;48.978;18.066;2023-05-21T09:29:48;13.73;;;6.05;;
46767;SDS011;69007;48.978;18.066;2023-05-21T09:32:13;6.60;;;5.30;;
46767;SDS011;69007;48.978;18.066;2023-05-21T09:34:41;7.18;;;5.78;;
46767;SDS011;69007;48.978;18.066;2023-05-21T09:37:06;6.82;;;5.93;;
46767;SDS011;69007;48.978;18.066;2023-05-21T09:39:33;11.57;;;5.65;;
46767;SDS011;69007;48.978;18.066;2023-05-21T09:41:59;6.05;;;5.30;;
46767;SDS011;69007;48.978;18.066;2023-05-21T09:44:25;9.65;;;5.57;;
46767;SDS011;69007;48.978;18.066;2023-05-21T09:46:55;6.90;;;5.93;;
46767;SDS011;69007;48.978;18.066;2023-05-21T09:49:22;7.32;;;6.10;;
46767;SDS011;69007;48.978;18.066;2023-05-21T09:51:48;10.70;;;5.72;;
46767;SDS011;69007;48.978;18.066;2023-05-21T09:54:14;6.53;;;5.35;;
46767;SDS011;69007;48.978;18.066;2023-05-21T09:56:46;7.53;;;5.47;;
46767;SDS011;69007;48.978;18.066;2023-05-21T09:59:11;9.27;;;5.05;;
46767;SDS011;69007;48.978;18.066;2023-05-21T10:01:37;9.48;;;5.47;;
46767;SDS011;69007;48.978;18.066;2023-05-21T10:04:05;8.88;;;5.28;;
46767;SDS011;69007;48.978;18.066;2023-05-21T10:06:31;9.05;;;6.30;;
46767;SDS011;69007;48.978;18.066;2023-05-21T10:09:02;6.47;;;5.30;;
46767;SDS011;69007;48.978;18.066;2023-05-21T10:11:34;10.88;;;5.53;;
46767;SDS011;69007;48.978;18.066;2023-05-21T10:14:03;8.25;;;5.55;;
46767;SDS011;69007;48.978;18.066;2023-05-21T10:16:35;8.23;;;5.25;;
46767;SDS011;69007;48.978;18.066;2023-05-21T10:19:01;5.60;;;5.03;;
46767;SDS011;69007;48.978;18.066;2023-05-21T10:21:27;9.35;;;5.22;;
46767;SDS011;69007;48.978;18.066;2023-05-21T10:23:52;9.05;;;5.07;;
46767;SDS011;69007;48.978;18.066;2023-05-21T10:26:21;7.45;;;5.30;;
46767;SDS011;69007;48.978;18.066;2023-05-21T10:28:48;4.90;;;4.40;;
46767;SDS011;69007;48.978;18.066;2023-05-21T10:31:15;7.63;;;5.22;;
46767;SDS011;69007;48.978;18.066;2023-05-21T10:33:40;5.78;;;5.20;;
46767;SDS011;69007;48.978;18.066;2023-05-21T10:36:07;8.15;;;4.50;;
46767;SDS011;69007;48.978;18.066;2023-05-21T10:38:33;6.15;;;4.78;;
46767;SDS011;69007;48.978;18.066;2023-05-21T10:41:00;5.75;;;5.15;;
46767;SDS011;69007;48.978;18.066;2023-05-21T10:59:27;7.00;;;5.35;;
46767;SDS011;69007;48.978;18.066;2023-05-21T11:02:01;7.40;;;4.95;;
46767;SDS011;69007;48.978;18.066;2023-05-21T11:04:28;6.22;;;5.25;;
46767;SDS011;69007;48.978;18.066;2023-05-21T11:06:54;7.53;;;5.13;;
46767;SDS011;69007;48.978;18.066;2023-05-21T11:09:22;10.25;;;5.50;;
46767;SDS011;69007;48.978;18.066;2023-05-21T11:11:51;7.22;;;5.32;;
46767;SDS011;69007;48.978;18.066;2023-05-21T11:19:33;9.82;;;5.07;;
46767;SDS011;69007;48.978;18.066;2023-05-21T11:21:59;7.22;;;5.10;;
46767;SDS011;69007;48.978;18.066;2023-05-21T11:24:25;7.13;;;4.95;;
46767;SDS011;69007;48.978;18.066;2023-05-21T11:29:30;7.22;;;5.07;;
46767;SDS011;69007;48.978;18.066;2023-05-21T11:34:25;6.00;;;5.40;;
46767;SDS011;69007;48.978;18.066;2023-05-21T11:42:41;6.28;;;5.03;;
46767;SDS011;69007;48.978;18.066;2023-05-21T11:45:08;6.05;;;5.43;;
46767;SDS011;69007;48.978;18.066;2023-05-21T11:47:34;9.23;;;5.05;;
46767;SDS011;69007;48.978;18.066;2023-05-21T11:50:00;6.72;;;5.40;;
46767;SDS011;69007;48.978;18.066;2023-05-21T11:52:30;5.47;;;4.85;;
46767;SDS011;69007;48.978;18.066;2023-05-21T11:54:57;5.72;;;4.80;;
46767;SDS011;69007;48.978;18.066;2023-05-21T11:57:25;6.07;;;4.68;;
46767;SDS011;69007;48.978;18.066;2023-05-21T11:59:54;8.57;;;5.53;;
46767;SDS011;69007;48.978;18.066;2023-05-21T12:02:23;6.03;;;5.22;;
46767;SDS011;69007;48.978;18.066;2023-05-21T12:04:51;7.25;;;5.10;;
46767;SDS011;69007;48.978;18.066;2023-05-21T12:07:17;10.30;;;5.28;;
46767;SDS011;69007;48.978;18.066;2023-05-21T12:09:47;7.03;;;5.30;;
46767;SDS011;69007;48.978;18.066;2023-05-21T12:12:14;7.90;;;5.35;;
46767;SDS011;69007;48.978;18.066;2023-05-21T12:14:49;7.07;;;5.32;;
46767;SDS011;69007;48.978;18.066;2023-05-21T12:17:17;12.05;;;5.57;;
46767;SDS011;69007;48.978;18.066;2023-05-21T12:19:45;7.57;;;5.45;;
46767;SDS011;69007;48.978;18.066;2023-05-21T12:22:11;6.70;;;5.25;;
46767;SDS011;69007;48.978;18.066;2023-05-21T12:24:37;6.82;;;5.47;;
46767;SDS011;69007;48.978;18.066;2023-05-21T12:27:04;6.20;;;5.53;;
46767;SDS011;69007;48.978;18.066;2023-05-21T12:29:34;5.95;;;5.07;;
46767;SDS011;69007;48.978;18.066;2023-05-21T12:32:02;8.63;;;5.20;;
46767;SDS011;69007;48.978;18.066;2023-05-21T12:37:03;5.47;;;4.82;;
46767;SDS011;69007;48.978;18.066;2023-05-21T12:39:30;8.25;;;5.75;;
46767;SDS011;69007;48.978;18.066;2023-05-21T12:41:56;7.45;;;4.95;;
46767;SDS011;69007;48.978;18.066;2023-05-21T12:44:22;10.95;;;5.18;;
46767;SDS011;69007;48.978;18.066;2023-05-21T12:46:47;5.97;;;5.28;;
46767;SDS011;69007;48.978;18.066;2023-05-21T12:52:02;6.47;;;4.65;;
46767;SDS011;69007;48.978;18.066;2023-05-21T12:54:32;6.97;;;4.85;;
46767;SDS011;69007;48.978;18.066;2023-05-21T12:57:09;5.25;;;4.40;;
46767;SDS011;69007;48.978;18.066;2023-05-21T12:59:42;9.63;;;4.90;;
46767;SDS011;69007;48.978;18.066;2023-05-21T13:05:05;9.75;;;5.22;;
46767;SDS011;69007;48.978;18.066;2023-05-21T13:07:32;8.77;;;5.20;;
46767;SDS011;69007;48.978;18.066;2023-05-21T13:10:01;7.60;;;5.60;;
46767;SDS011;69007;48.978;18.066;2023-05-21T13:12:28;7.43;;;5.05;;
46767;SDS011;69007;48.978;18.066;2023-05-21T13:14:55;7.22;;;4.95;;
46767;SDS011;69007;48.978;18.066;2023-05-21T13:17:22;5.32;;;4.35;;
46767;SDS011;69007;48.978;18.066;2023-05-21T13:22:37;4.57;;;4.15;;
46767;SDS011;69007;48.978;18.066;2023-05-21T13:25:15;6.90;;;4.30;;
46767;SDS011;69007;48.978;18.066;2023-05-21T13:27:45;5.28;;;3.97;;
46767;SDS011;69007;48.978;18.066;2023-05-21T13:30:11;7.82;;;3.55;;
46767;SDS011;69007;48.978;18.066;2023-05-21T13:32:37;5.13;;;2.88;;
46767;SDS011;69007;48.978;18.066;2023-05-21T13:35:03;7.47;;;3.25;;
46767;SDS011;69007;48.978;18.066;2023-05-21T13:37:29;5.18;;;4.00;;
46767;SDS011;69007;48.978;18.066;2023-05-21T13:39:54;5.85;;;3.78;;
46767;SDS011;69007;48.978;18.066;2023-05-21T13:42:20;4.82;;;4.32;;
46767;SDS011;69007;48.978;18.066;2023-05-21T13:44:46;6.53;;;4.03;;
46767;SDS011;69007;48.978;18.066;2023-05-21T13:47:12;6.53;;;4.43;;
46767;SDS011;69007;48.978;18.066;2023-05-21T13:49:38;7.13;;;4.30;;
46767;SDS011;69007;48.978;18.066;2023-05-21T13:52:04;5.15;;;4.03;;
46767;SDS011;69007;48.978;18.066;2023-05-21T13:54:30;8.43;;;4.47;;
46767;SDS011;69007;48.978;18.066;2023-05-21T13:56:56;8.15;;;4.40;;
46767;SDS011;69007;48.978;18.066;2023-05-21T13:59:22;9.38;;;4.63;;
46767;SDS011;69007;48.978;18.066;2023-05-21T14:01:47;4.63;;;4.22;;
46767;SDS011;69007;48.978;18.066;2023-05-21T14:04:14;6.82;;;3.90;;
46767;SDS011;69007;48.978;18.066;2023-05-21T14:06:41;5.88;;;4.13;;
46767;SDS011;69007;48.978;18.066;2023-05-21T14:09:06;5.47;;;4.20;;
46767;SDS011;69007;48.978;18.066;2023-05-21T14:11:32;4.80;;;3.70;;
46767;SDS011;69007;48.978;18.066;2023-05-21T14:13:57;6.25;;;4.38;;
46767;SDS011;69007;48.978;18.066;2023-05-21T14:16:23;8.02;;;3.90;;
46767;SDS011;69007;48.978;18.066;2023-05-21T14:18:51;4.10;;;3.70;;
46767;SDS011;69007;48.978;18.066;2023-05-21T14:21:17;4.47;;;3.65;;
46767;SDS011;69007;48.978;18.066;2023-05-21T14:23:43;3.85;;;3.50;;
46767;SDS011;69007;48.978;18.066;2023-05-21T14:26:08;11.95;;;4.13;;
46767;SDS011;69007;48.978;18.066;2023-05-21T14:28:33;5.90;;;3.63;;
46767;SDS011;69007;48.978;18.066;2023-05-21T14:30:59;8.30;;;4.22;;
46767;SDS011;69007;48.978;18.066;2023-05-21T14:33:24;5.60;;;4.03;;
46767;SDS011;69007;48.978;18.066;2023-05-21T14:35:49;5.28;;;4.25;;
46767;SDS011;69007;48.978;18.066;2023-05-21T14:38:15;4.97;;;3.50;;
46767;SDS011;69007;48.978;18.066;2023-05-21T14:40:40;3.95;;;3.45;;
46767;SDS011;69007;48.978;18.066;2023-05-21T14:43:05;4.47;;;4.07;;
46767;SDS011;69007;48.978;18.066;2023-05-21T14:45:31;6.97;;;4.22;;
46767;SDS011;69007;48.978;18.066;2023-05-21T14:47:59;7.70;;;4.70;;
46767;SDS011;69007;48.978;18.066;2023-05-21T14:50:25;11.25;;;5.30;;
46767;SDS011;69007;48.978;18.066;2023-05-21T14:52:50;5.95;;;4.97;;
46767;SDS011;69007;48.978;18.066;2023-05-21T14:55:16;6.43;;;5.38;;
46767;SDS011;69007;48.978;18.066;2023-05-21T14:57:42;9.73;;;4.78;;
46767;SDS011;69007;48.978;18.066;2023-05-21T15:00:08;5.18;;;4.68;;
46767;SDS011;69007;48.978;18.066;2023-05-21T15:02:35;7.40;;;4.95;;
46767;SDS011;69007;48.978;18.066;2023-05-21T15:05:01;8.55;;;4.93;;
46767;SDS011;69007;48.978;18.066;2023-05-21T15:07:27;5.28;;;4.63;;
46767;SDS011;69007;48.978;18.066;2023-05-21T15:09:52;8.30;;;5.00;;